Hauptseite
METAR-TAF:

METAR-TAF

Flughäfen :

Bournemouth Airport

Bournemouth, England

Breite: 50-47N, Länge: 001-50W, Höhe: 11 m

Beobachtung

Neuester Wetterbericht von vor 2 Stunden und 37 Minuten, um 21:20 UTC
Wind 4 kt aus Nord/Nordwest
Temperatur -1°C
Luftfeuchtigkeit 93%
Luftdruck 998 hPa
Sichtweite: 7000 m

METAR: EGHH 222120Z 33004KT 7000 NSC M01/M02 Q0998

Zeit: 23:57 (23:57 UTC)

Prognose

Neuester Wetterbericht von vor 2 Stunden und 30 Minuten, um 21:27 UTC
Gültige Prognose vom 22 um 21 UTC bis 23 um 06 UTC
Wind 5 kt aus West/Nordwest
Sichtweite: 7000 m
Leicht bewölkt in der Höhe von 2500 ft
Wahrscheinlichkeit 40%
vom 22 um 21 UTC bis 23 um 06 UTC
Sichtweite 10 km oder mehr

TAF: EGHH 222127Z 2221/2306 29005KT 7000 FEW025 PROB40 2221/2306 9999

Wetterbeobachtungen und Prognosen von mehr als 4000 Flughäfen (METAR und TAF Bericht).

Die verfügbaren Stationen werden durch gelbe und rote Markierungen auf der Karte dargestellt.

Führen Sie die Maus auf sie, um den Namen der Station zu sehen.

Darauf klicken, um die Beobachtung von Wetterbeobachtungen und Prognosen zu sehen.

Um die Karte zu ändern : klicken Sie auf den grünen Tasten mit einem schwarzen Kreuz Zum Vergrößern, auf den grünen Button mit einem Gedankenstrich zu verkleinern, oder auf die grünen Pfeile für benachbarte Karten.


METAR-TAF: